Niagara, Wisconsin
Current Conditions -  °F | °C
As of 11:54 PM on Saturday 22 Nov 2014 (Local Time) from KIMT Reporting Station
Haze Haze  
Wind Chill: 31°   Ceiling: 300
Heat Index: 35°   Visibility: 1.5mi
Dew Point: 33°   Wind: 5mph
Humidity: 92%   Direction: 150°SSE
Pressure: 29.7"   Gusts: NA
Location:  45.77°N, 87.99°W
Report Text: KIMT 230554Z AUTO 15004KT 1 1/2SM BR OVC003 02/01 A2970 RMK AO2 SLP068 T00170006 10017 20011 400391028 57003
Loading
Personal Weather Stations






























Interactive Weather Map New forecast layout! Learn more

10-Day Weather Forecast

Advertisements
Track Severe Weather on mobile